sensor_id;sensor_type;location;lat;lon;timestamp;temperature;humidity
54260;DHT22;40172;53.022;7.012;2022-11-20T00:00:57;-1.60;99.90
54260;DHT22;40172;53.022;7.012;2022-11-20T00:03:29;-1.50;99.90
54260;DHT22;40172;53.022;7.012;2022-11-20T00:06:02;-1.50;99.90
54260;DHT22;40172;53.022;7.012;2022-11-20T00:08:28;-1.50;99.90
54260;DHT22;40172;53.022;7.012;2022-11-20T00:10:54;-1.50;99.90
54260;DHT22;40172;53.022;7.012;2022-11-20T00:13:19;-1.50;99.90
54260;DHT22;40172;53.022;7.012;2022-11-20T00:15:45;-1.50;99.90
54260;DHT22;40172;53.022;7.012;2022-11-20T00:18:10;-1.50;99.90
54260;DHT22;40172;53.022;7.012;2022-11-20T00:20:36;-1.50;99.90
54260;DHT22;40172;53.022;7.012;2022-11-20T00:23:01;-1.50;99.90
54260;DHT22;40172;53.022;7.012;2022-11-20T00:25:27;-1.40;99.90
54260;DHT22;40172;53.022;7.012;2022-11-20T00:27:52;-1.30;99.90
54260;DHT22;40172;53.022;7.012;2022-11-20T00:30:18;-1.40;99.90
54260;DHT22;40172;53.022;7.012;2022-11-20T00:32:44;-1.40;99.90
54260;DHT22;40172;53.022;7.012;2022-11-20T00:35:09;-1.30;99.90
54260;DHT22;40172;53.022;7.012;2022-11-20T00:37:35;-1.30;99.90
54260;DHT22;40172;53.022;7.012;2022-11-20T00:40:00;-1.30;99.90
54260;DHT22;40172;53.022;7.012;2022-11-20T00:42:26;-1.30;99.90
54260;DHT22;40172;53.022;7.012;2022-11-20T00:44:52;-1.30;99.90
54260;DHT22;40172;53.022;7.012;2022-11-20T00:47:17;-0.10;99.90
54260;DHT22;40172;53.022;7.012;2022-11-20T00:49:43;-1.20;99.90
54260;DHT22;40172;53.022;7.012;2022-11-20T00:52:09;-1.30;99.90
54260;DHT22;40172;53.022;7.012;2022-11-20T00:54:34;-1.30;99.90
54260;DHT22;40172;53.022;7.012;2022-11-20T00:57:00;-1.20;99.90
54260;DHT22;40172;53.022;7.012;2022-11-20T00:59:25;-0.90;99.90
54260;DHT22;40172;53.022;7.012;2022-11-20T01:01:51;-1.20;99.90
54260;DHT22;40172;53.022;7.012;2022-11-20T01:04:17;-1.20;99.90
54260;DHT22;40172;53.022;7.012;2022-11-20T01:06:42;-1.20;99.90
54260;DHT22;40172;53.022;7.012;2022-11-20T01:09:11;-1.10;99.90
54260;DHT22;40172;53.022;7.012;2022-11-20T01:11:43;-1.10;99.90
54260;DHT22;40172;53.022;7.012;2022-11-20T01:14:11;-1.10;99.90
54260;DHT22;40172;53.022;7.012;2022-11-20T01:16:40;-1.10;99.90
54260;DHT22;40172;53.022;7.012;2022-11-20T01:19:09;-1.10;99.90
54260;DHT22;40172;53.022;7.012;2022-11-20T01:21:37;-1.00;99.90
54260;DHT22;40172;53.022;7.012;2022-11-20T01:24:05;-1.00;99.90
54260;DHT22;40172;53.022;7.012;2022-11-20T01:26:35;-1.00;99.90
54260;DHT22;40172;53.022;7.012;2022-11-20T01:29:01;-1.00;99.90
54260;DHT22;40172;53.022;7.012;2022-11-20T01:31:29;-1.00;99.90
54260;DHT22;40172;53.022;7.012;2022-11-20T01:33:57;-1.00;99.90
54260;DHT22;40172;53.022;7.012;2022-11-20T01:36:25;-1.00;99.90
54260;DHT22;40172;53.022;7.012;2022-11-20T01:38:52;-1.00;99.90
54260;DHT22;40172;53.022;7.012;2022-11-20T01:41:18;-1.00;99.90
54260;DHT22;40172;53.022;7.012;2022-11-20T01:44:04;-1.00;99.90
54260;DHT22;40172;53.022;7.012;2022-11-20T01:46:32;-1.00;99.90
54260;DHT22;40172;53.022;7.012;2022-11-20T01:49:08;-1.00;99.90
54260;DHT22;40172;53.022;7.012;2022-11-20T01:51:47;-0.60;99.90
54260;DHT22;40172;53.022;7.012;2022-11-20T01:54:25;-1.00;99.90
54260;DHT22;40172;53.022;7.012;2022-11-20T01:56:55;-0.80;99.90
54260;DHT22;40172;53.022;7.012;2022-11-20T01:59:23;-0.80;99.90
54260;DHT22;40172;53.022;7.012;2022-11-20T02:01:49;-1.00;99.90
54260;DHT22;40172;53.022;7.012;2022-11-20T02:04:15;-0.80;99.90
54260;DHT22;40172;53.022;7.012;2022-11-20T02:07:06;-0.80;99.90
54260;DHT22;40172;53.022;7.012;2022-11-20T02:09:32;-0.80;99.90
54260;DHT22;40172;53.022;7.012;2022-11-20T02:11:58;0.00;99.90
54260;DHT22;40172;53.022;7.012;2022-11-20T02:14:25;-0.80;99.90
54260;DHT22;40172;53.022;7.012;2022-11-20T02:16:51;-0.80;99.90
54260;DHT22;40172;53.022;7.012;2022-11-20T02:19:27;-0.80;99.90
54260;DHT22;40172;53.022;7.012;2022-11-20T02:22:14;-0.80;99.90
54260;DHT22;40172;53.022;7.012;2022-11-20T02:24:42;-0.80;99.90
54260;DHT22;40172;53.022;7.012;2022-11-20T02:27:11;-0.90;99.90
54260;DHT22;40172;53.022;7.012;2022-11-20T02:29:41;-0.80;99.90
54260;DHT22;40172;53.022;7.012;2022-11-20T02:32:21;-0.90;99.90
54260;DHT22;40172;53.022;7.012;2022-11-20T02:34:47;-0.80;99.90
54260;DHT22;40172;53.022;7.012;2022-11-20T02:37:14;-0.90;99.90
54260;DHT22;40172;53.022;7.012;2022-11-20T02:39:40;-0.90;99.90
54260;DHT22;40172;53.022;7.012;2022-11-20T02:42:05;-0.80;99.90
54260;DHT22;40172;53.022;7.012;2022-11-20T02:44:31;-0.80;99.90
54260;DHT22;40172;53.022;7.012;2022-11-20T02:46:57;-0.80;99.90
54260;DHT22;40172;53.022;7.012;2022-11-20T02:49:24;-0.80;99.90
54260;DHT22;40172;53.022;7.012;2022-11-20T02:51:50;-0.90;99.90
54260;DHT22;40172;53.022;7.012;2022-11-20T02:54:15;-0.80;99.90
54260;DHT22;40172;53.022;7.012;2022-11-20T02:56:41;-0.80;99.90
54260;DHT22;40172;53.022;7.012;2022-11-20T02:59:06;-0.90;99.90
54260;DHT22;40172;53.022;7.012;2022-11-20T03:01:32;-0.80;99.90
54260;DHT22;40172;53.022;7.012;2022-11-20T03:03:58;-0.50;99.90
54260;DHT22;40172;53.022;7.012;2022-11-20T03:06:23;-0.80;99.90
54260;DHT22;40172;53.022;7.012;2022-11-20T03:08:49;-0.80;99.90
54260;DHT22;40172;53.022;7.012;2022-11-20T03:11:15;-0.90;99.90
54260;DHT22;40172;53.022;7.012;2022-11-20T03:13:42;-0.80;99.90
54260;DHT22;40172;53.022;7.012;2022-11-20T03:16:14;-0.80;99.90
54260;DHT22;40172;53.022;7.012;2022-11-20T03:18:41;-0.80;99.90
54260;DHT22;40172;53.022;7.012;2022-11-20T03:21:08;-0.60;99.90
54260;DHT22;40172;53.022;7.012;2022-11-20T03:23:34;-0.80;99.90
54260;DHT22;40172;53.022;7.012;2022-11-20T03:26:23;-0.80;99.90
54260;DHT22;40172;53.022;7.012;2022-11-20T03:28:54;-0.70;99.90
54260;DHT22;40172;53.022;7.012;2022-11-20T03:31:23;-0.90;99.90
54260;DHT22;40172;53.022;7.012;2022-11-20T03:33:49;-0.80;99.90
54260;DHT22;40172;53.022;7.012;2022-11-20T03:36:16;-0.80;99.90
54260;DHT22;40172;53.022;7.012;2022-11-20T03:38:42;-0.80;99.90
54260;DHT22;40172;53.022;7.012;2022-11-20T03:41:10;-0.70;99.90
54260;DHT22;40172;53.022;7.012;2022-11-20T03:43:36;-0.80;99.90
54260;DHT22;40172;53.022;7.012;2022-11-20T03:46:03;-0.80;99.90
54260;DHT22;40172;53.022;7.012;2022-11-20T03:48:29;-0.70;99.90
54260;DHT22;40172;53.022;7.012;2022-11-20T03:51:13;-0.70;99.90
54260;DHT22;40172;53.022;7.012;2022-11-20T03:53:39;-0.70;99.90
54260;DHT22;40172;53.022;7.012;2022-11-20T03:56:07;-0.70;99.90
54260;DHT22;40172;53.022;7.012;2022-11-20T03:58:34;-0.70;99.90
54260;DHT22;40172;53.022;7.012;2022-11-20T04:01:39;-0.70;99.90
54260;DHT22;40172;53.022;7.012;2022-11-20T04:03:58;-0.70;99.90
54260;DHT22;40172;53.022;7.012;2022-11-20T04:06:34;-0.50;99.90
54260;DHT22;40172;53.022;7.012;2022-11-20T04:09:00;-0.70;99.90
54260;DHT22;40172;53.022;7.012;2022-11-20T04:11:28;-0.70;99.90
54260;DHT22;40172;53.022;7.012;2022-11-20T04:13:58;-0.70;99.90
54260;DHT22;40172;53.022;7.012;2022-11-20T04:16:25;-0.60;99.90
54260;DHT22;40172;53.022;7.012;2022-11-20T04:18:56;-0.60;99.90
54260;DHT22;40172;53.022;7.012;2022-11-20T04:21:22;-0.70;99.90
54260;DHT22;40172;53.022;7.012;2022-11-20T04:23:48;-0.60;99.90
54260;DHT22;40172;53.022;7.012;2022-11-20T04:26:14;-0.70;99.90
54260;DHT22;40172;53.022;7.012;2022-11-20T04:28:39;-0.70;99.90
54260;DHT22;40172;53.022;7.012;2022-11-20T04:31:19;-0.70;99.90
54260;DHT22;40172;53.022;7.012;2022-11-20T04:33:45;-0.70;99.90
54260;DHT22;40172;53.022;7.012;2022-11-20T04:36:13;-0.60;99.90
54260;DHT22;40172;53.022;7.012;2022-11-20T04:38:40;-0.60;99.90
54260;DHT22;40172;53.022;7.012;2022-11-20T04:41:07;-0.70;99.90
54260;DHT22;40172;53.022;7.012;2022-11-20T04:43:33;-0.60;99.90
54260;DHT22;40172;53.022;7.012;2022-11-20T04:46:00;-0.60;99.90
54260;DHT22;40172;53.022;7.012;2022-11-20T04:48:27;-0.60;99.90
54260;DHT22;40172;53.022;7.012;2022-11-20T04:50:53;-0.60;99.90
54260;DHT22;40172;53.022;7.012;2022-11-20T04:53:19;-0.30;99.90
54260;DHT22;40172;53.022;7.012;2022-11-20T04:55:45;-0.60;99.90
54260;DHT22;40172;53.022;7.012;2022-11-20T04:58:12;-0.50;99.90
54260;DHT22;40172;53.022;7.012;2022-11-20T05:00:37;-0.50;99.90
54260;DHT22;40172;53.022;7.012;2022-11-20T05:03:03;-0.50;99.90
54260;DHT22;40172;53.022;7.012;2022-11-20T05:05:29;-0.60;99.90
54260;DHT22;40172;53.022;7.012;2022-11-20T05:07:58;-0.50;99.90
54260;DHT22;40172;53.022;7.012;2022-11-20T05:10:24;-0.50;99.90
54260;DHT22;40172;53.022;7.012;2022-11-20T05:12:50;-0.50;99.90
54260;DHT22;40172;53.022;7.012;2022-11-20T05:15:16;-0.50;99.90
54260;DHT22;40172;53.022;7.012;2022-11-20T05:17:47;-0.50;99.90
54260;DHT22;40172;53.022;7.012;2022-11-20T05:20:13;-0.50;99.90
54260;DHT22;40172;53.022;7.012;2022-11-20T05:22:38;-0.60;99.90
54260;DHT22;40172;53.022;7.012;2022-11-20T05:25:04;-0.50;99.90
54260;DHT22;40172;53.022;7.012;2022-11-20T05:27:30;-0.50;99.90
54260;DHT22;40172;53.022;7.012;2022-11-20T05:29:55;-0.50;99.90
54260;DHT22;40172;53.022;7.012;2022-11-20T05:32:21;-0.50;99.90
54260;DHT22;40172;53.022;7.012;2022-11-20T05:34:50;-0.50;99.90
54260;DHT22;40172;53.022;7.012;2022-11-20T05:37:16;-0.50;99.90
54260;DHT22;40172;53.022;7.012;2022-11-20T05:39:41;-0.50;99.90
54260;DHT22;40172;53.022;7.012;2022-11-20T05:42:07;-0.50;99.90
54260;DHT22;40172;53.022;7.012;2022-11-20T05:44:51;-0.50;99.90
54260;DHT22;40172;53.022;7.012;2022-11-20T05:47:16;-0.20;99.90
54260;DHT22;40172;53.022;7.012;2022-11-20T05:49:42;-0.50;99.90
54260;DHT22;40172;53.022;7.012;2022-11-20T05:52:07;-0.60;99.90
54260;DHT22;40172;53.022;7.012;2022-11-20T05:54:33;-0.60;99.90
54260;DHT22;40172;53.022;7.012;2022-11-20T05:56:58;-0.60;99.90
54260;DHT22;40172;53.022;7.012;2022-11-20T05:59:24;-0.50;99.90
54260;DHT22;40172;53.022;7.012;2022-11-20T06:01:49;-0.50;99.90
54260;DHT22;40172;53.022;7.012;2022-11-20T06:04:15;-0.50;99.90
54260;DHT22;40172;53.022;7.012;2022-11-20T06:06:40;-0.60;99.90
54260;DHT22;40172;53.022;7.012;2022-11-20T06:09:06;-0.60;99.90
54260;DHT22;40172;53.022;7.012;2022-11-20T06:11:32;-0.50;99.90
54260;DHT22;40172;53.022;7.012;2022-11-20T06:13:57;-0.20;99.90
54260;DHT22;40172;53.022;7.012;2022-11-20T06:16:23;-0.50;99.90
54260;DHT22;40172;53.022;7.012;2022-11-20T06:18:48;-0.10;99.90
54260;DHT22;40172;53.022;7.012;2022-11-20T06:21:17;-0.50;99.90
54260;DHT22;40172;53.022;7.012;2022-11-20T06:23:43;-0.50;99.90
54260;DHT22;40172;53.022;7.012;2022-11-20T06:26:32;-0.50;99.90
54260;DHT22;40172;53.022;7.012;2022-11-20T06:28:57;-0.50;99.90
54260;DHT22;40172;53.022;7.012;2022-11-20T06:31:24;-0.50;99.90
54260;DHT22;40172;53.022;7.012;2022-11-20T06:33:51;-0.50;99.90
54260;DHT22;40172;53.022;7.012;2022-11-20T06:36:19;-0.40;99.90
54260;DHT22;40172;53.022;7.012;2022-11-20T06:38:45;-0.50;99.90
54260;DHT22;40172;53.022;7.012;2022-11-20T06:41:13;-0.30;99.90
54260;DHT22;40172;53.022;7.012;2022-11-20T06:43:39;-0.40;99.90
54260;DHT22;40172;53.022;7.012;2022-11-20T06:46:05;-0.40;99.90
54260;DHT22;40172;53.022;7.012;2022-11-20T06:48:31;-0.40;99.90
54260;DHT22;40172;53.022;7.012;2022-11-20T06:50:57;-0.40;99.90
54260;DHT22;40172;53.022;7.012;2022-11-20T06:53:23;-0.40;99.90
54260;DHT22;40172;53.022;7.012;2022-11-20T06:55:50;-0.50;99.90
54260;DHT22;40172;53.022;7.012;2022-11-20T06:58:16;-0.40;99.90
54260;DHT22;40172;53.022;7.012;2022-11-20T07:00:42;-0.40;99.90
54260;DHT22;40172;53.022;7.012;2022-11-20T07:03:09;-0.40;99.90
54260;DHT22;40172;53.022;7.012;2022-11-20T07:05:36;-0.40;99.90
54260;DHT22;40172;53.022;7.012;2022-11-20T07:08:02;-0.30;99.90
54260;DHT22;40172;53.022;7.012;2022-11-20T07:10:28;-0.40;99.90
54260;DHT22;40172;53.022;7.012;2022-11-20T07:12:54;-0.40;99.90
54260;DHT22;40172;53.022;7.012;2022-11-20T07:15:21;-0.40;99.90
54260;DHT22;40172;53.022;7.012;2022-11-20T07:17:47;-0.30;99.90
54260;DHT22;40172;53.022;7.012;2022-11-20T07:20:14;-0.30;99.90
54260;DHT22;40172;53.022;7.012;2022-11-20T07:22:39;-0.30;99.90
54260;DHT22;40172;53.022;7.012;2022-11-20T07:25:05;-0.40;99.90
54260;DHT22;40172;53.022;7.012;2022-11-20T07:27:31;-0.30;99.90
54260;DHT22;40172;53.022;7.012;2022-11-20T07:29:57;-0.10;99.90
54260;DHT22;40172;53.022;7.012;2022-11-20T07:32:23;-0.30;99.90
54260;DHT22;40172;53.022;7.012;2022-11-20T07:34:48;-0.30;99.90
54260;DHT22;40172;53.022;7.012;2022-11-20T07:37:14;-0.20;99.90
54260;DHT22;40172;53.022;7.012;2022-11-20T07:39:40;-0.20;99.90
54260;DHT22;40172;53.022;7.012;2022-11-20T07:42:07;-0.30;99.90
54260;DHT22;40172;53.022;7.012;2022-11-20T07:44:32;-0.20;99.90
54260;DHT22;40172;53.022;7.012;2022-11-20T07:46:58;0.10;99.90
54260;DHT22;40172;53.022;7.012;2022-11-20T07:49:24;-0.20;99.90
54260;DHT22;40172;53.022;7.012;2022-11-20T07:51:52;-0.10;99.90
54260;DHT22;40172;53.022;7.012;2022-11-20T07:54:19;0.00;99.90
54260;DHT22;40172;53.022;7.012;2022-11-20T07:56:46;0.00;99.90
54260;DHT22;40172;53.022;7.012;2022-11-20T07:59:11;0.00;99.90
54260;DHT22;40172;53.022;7.012;2022-11-20T08:01:38;0.00;99.90
54260;DHT22;40172;53.022;7.012;2022-11-20T08:04:04;0.00;99.90
54260;DHT22;40172;53.022;7.012;2022-11-20T08:06:30;0.00;99.90
54260;DHT22;40172;53.022;7.012;2022-11-20T08:08:55;0.10;99.90
54260;DHT22;40172;53.022;7.012;2022-11-20T08:11:21;0.10;99.90
54260;DHT22;40172;53.022;7.012;2022-11-20T08:14:21;0.20;99.90
54260;DHT22;40172;53.022;7.012;2022-11-20T08:16:48;0.30;99.90
54260;DHT22;40172;53.022;7.012;2022-11-20T08:19:15;0.10;99.90
54260;DHT22;40172;53.022;7.012;2022-11-20T08:21:41;0.20;99.90
54260;DHT22;40172;53.022;7.012;2022-11-20T08:24:08;0.20;99.90
54260;DHT22;40172;53.022;7.012;2022-11-20T08:26:35;0.20;99.90
54260;DHT22;40172;53.022;7.012;2022-11-20T08:29:00;0.30;99.90
54260;DHT22;40172;53.022;7.012;2022-11-20T08:31:27;0.30;99.90
54260;DHT22;40172;53.022;7.012;2022-11-20T08:33:53;0.30;99.90
54260;DHT22;40172;53.022;7.012;2022-11-20T08:36:20;0.60;99.90
54260;DHT22;40172;53.022;7.012;2022-11-20T08:38:50;0.40;99.90
54260;DHT22;40172;53.022;7.012;2022-11-20T08:41:16;0.40;99.90
54260;DHT22;40172;53.022;7.012;2022-11-20T08:44:01;0.40;99.90
54260;DHT22;40172;53.022;7.012;2022-11-20T08:46:37;0.40;99.90
54260;DHT22;40172;53.022;7.012;2022-11-20T08:49:08;0.40;99.90
54260;DHT22;40172;53.022;7.012;2022-11-20T08:51:35;0.40;99.90
54260;DHT22;40172;53.022;7.012;2022-11-20T08:54:01;0.30;99.90
54260;DHT22;40172;53.022;7.012;2022-11-20T08:56:27;0.30;99.90
54260;DHT22;40172;53.022;7.012;2022-11-20T08:58:53;0.30;99.90
54260;DHT22;40172;53.022;7.012;2022-11-20T09:01:19;0.40;99.90
54260;DHT22;40172;53.022;7.012;2022-11-20T09:03:45;0.30;99.90
54260;DHT22;40172;53.022;7.012;2022-11-20T09:06:12;0.30;99.90
54260;DHT22;40172;53.022;7.012;2022-11-20T09:08:37;0.30;99.90
54260;DHT22;40172;53.022;7.012;2022-11-20T09:11:03;0.30;99.90
54260;DHT22;40172;53.022;7.012;2022-11-20T09:13:30;0.40;99.90
54260;DHT22;40172;53.022;7.012;2022-11-20T09:15:57;0.40;99.90
54260;DHT22;40172;53.022;7.012;2022-11-20T09:18:24;0.40;99.90
54260;DHT22;40172;53.022;7.012;2022-11-20T09:20:50;0.80;99.90
54260;DHT22;40172;53.022;7.012;2022-11-20T09:23:16;0.50;99.90
54260;DHT22;40172;53.022;7.012;2022-11-20T09:25:42;0.60;99.90
54260;DHT22;40172;53.022;7.012;2022-11-20T09:28:08;1.20;99.90
54260;DHT22;40172;53.022;7.012;2022-11-20T09:30:33;0.60;99.90
54260;DHT22;40172;53.022;7.012;2022-11-20T09:32:59;0.60;99.90
54260;DHT22;40172;53.022;7.012;2022-11-20T09:35:24;0.60;99.90
54260;DHT22;40172;53.022;7.012;2022-11-20T09:37:50;0.70;99.90
54260;DHT22;40172;53.022;7.012;2022-11-20T09:40:27;0.80;99.90
54260;DHT22;40172;53.022;7.012;2022-11-20T09:43:07;0.80;99.90
54260;DHT22;40172;53.022;7.012;2022-11-20T09:46:18;0.80;99.90
54260;DHT22;40172;53.022;7.012;2022-11-20T09:49:09;0.90;99.90
54260;DHT22;40172;53.022;7.012;2022-11-20T09:51:57;0.90;99.90
54260;DHT22;40172;53.022;7.012;2022-11-20T09:54:29;0.90;99.90
54260;DHT22;40172;53.022;7.012;2022-11-20T09:57:00;1.00;99.90
54260;DHT22;40172;53.022;7.012;2022-11-20T09:59:34;1.10;99.90
54260;DHT22;40172;53.022;7.012;2022-11-20T10:02:01;1.20;99.90
54260;DHT22;40172;53.022;7.012;2022-11-20T10:04:30;1.20;99.90
54260;DHT22;40172;53.022;7.012;2022-11-20T10:09:35;1.40;99.90
54260;DHT22;40172;53.022;7.012;2022-11-20T10:20:02;1.60;99.90
54260;DHT22;40172;53.022;7.012;2022-11-20T10:28:40;1.50;99.90
54260;DHT22;40172;53.022;7.012;2022-11-20T10:31:47;1.50;99.90
54260;DHT22;40172;53.022;7.012;2022-11-20T10:34:28;1.40;99.90
54260;DHT22;40172;53.022;7.012;2022-11-20T10:37:09;1.50;99.90
54260;DHT22;40172;53.022;7.012;2022-11-20T10:42:17;1.50;99.90
54260;DHT22;40172;53.022;7.012;2022-11-20T10:44:51;1.60;99.90
54260;DHT22;40172;53.022;7.012;2022-11-20T10:47:30;1.70;99.90
54260;DHT22;40172;53.022;7.012;2022-11-20T10:49:58;2.20;99.90
54260;DHT22;40172;53.022;7.012;2022-11-20T10:58:24;2.10;99.90
54260;DHT22;40172;53.022;7.012;2022-11-20T11:01:13;2.20;99.90
54260;DHT22;40172;53.022;7.012;2022-11-20T11:03:40;2.30;99.90
54260;DHT22;40172;53.022;7.012;2022-11-20T11:06:31;2.30;99.90
54260;DHT22;40172;53.022;7.012;2022-11-20T11:09:02;2.50;99.90
54260;DHT22;40172;53.022;7.012;2022-11-20T11:11:32;2.60;99.90
54260;DHT22;40172;53.022;7.012;2022-11-20T11:14:10;2.60;99.90
54260;DHT22;40172;53.022;7.012;2022-11-20T11:16:53;2.60;99.90
54260;DHT22;40172;53.022;7.012;2022-11-20T11:19:19;2.70;99.90
54260;DHT22;40172;53.022;7.012;2022-11-20T11:21:50;2.70;99.90
54260;DHT22;40172;53.022;7.012;2022-11-20T11:24:26;2.60;99.90
54260;DHT22;40172;53.022;7.012;2022-11-20T11:27:00;2.70;99.90
54260;DHT22;40172;53.022;7.012;2022-11-20T11:29:30;2.70;99.90
54260;DHT22;40172;53.022;7.012;2022-11-20T11:32:08;2.70;99.90
54260;DHT22;40172;53.022;7.012;2022-11-20T11:34:34;2.80;99.90
54260;DHT22;40172;53.022;7.012;2022-11-20T11:37:00;2.90;99.90
54260;DHT22;40172;53.022;7.012;2022-11-20T11:39:29;3.00;99.90
54260;DHT22;40172;53.022;7.012;2022-11-20T11:41:55;3.10;99.90
54260;DHT22;40172;53.022;7.012;2022-11-20T11:44:29;3.20;99.90
54260;DHT22;40172;53.022;7.012;2022-11-20T11:47:24;3.30;99.90
54260;DHT22;40172;53.022;7.012;2022-11-20T11:50:22;3.30;99.90
54260;DHT22;40172;53.022;7.012;2022-11-20T11:56:05;3.40;99.90
54260;DHT22;40172;53.022;7.012;2022-11-20T11:58:45;3.40;99.90
54260;DHT22;40172;53.022;7.012;2022-11-20T12:01:24;3.40;99.90
54260;DHT22;40172;53.022;7.012;2022-11-20T12:06:37;3.40;99.90
54260;DHT22;40172;53.022;7.012;2022-11-20T12:09:08;3.40;99.90
54260;DHT22;40172;53.022;7.012;2022-11-20T12:11:43;3.50;99.90
54260;DHT22;40172;53.022;7.012;2022-11-20T12:14:34;3.70;99.90
54260;DHT22;40172;53.022;7.012;2022-11-20T12:17:01;3.50;99.90
54260;DHT22;40172;53.022;7.012;2022-11-20T12:19:33;3.40;99.90
54260;DHT22;40172;53.022;7.012;2022-11-20T12:22:06;3.40;99.90
54260;DHT22;40172;53.022;7.012;2022-11-20T12:24:50;3.30;99.90
54260;DHT22;40172;53.022;7.012;2022-11-20T12:27:49;3.30;99.90
54260;DHT22;40172;53.022;7.012;2022-11-20T12:30:18;3.20;99.90
54260;DHT22;40172;53.022;7.012;2022-11-20T12:35:36;3.20;99.90
54260;DHT22;40172;53.022;7.012;2022-11-20T12:41:22;3.20;99.90
54260;DHT22;40172;53.022;7.012;2022-11-20T12:49:48;3.40;99.90
54260;DHT22;40172;53.022;7.012;2022-11-20T12:55:20;3.60;99.90
54260;DHT22;40172;53.022;7.012;2022-11-20T12:58:15;3.70;99.90
54260;DHT22;40172;53.022;7.012;2022-11-20T13:01:00;3.70;99.90
54260;DHT22;40172;53.022;7.012;2022-11-20T13:03:47;3.70;99.90
54260;DHT22;40172;53.022;7.012;2022-11-20T13:06:18;3.70;99.90
54260;DHT22;40172;53.022;7.012;2022-11-20T13:08:52;3.70;99.90
54260;DHT22;40172;53.022;7.012;2022-11-20T13:11:47;3.60;99.90
54260;DHT22;40172;53.022;7.012;2022-11-20T13:17:11;3.60;99.90
54260;DHT22;40172;53.022;7.012;2022-11-20T13:19:38;3.60;99.90
54260;DHT22;40172;53.022;7.012;2022-11-20T13:22:04;3.70;99.90
54260;DHT22;40172;53.022;7.012;2022-11-20T13:24:31;3.80;99.90
54260;DHT22;40172;53.022;7.012;2022-11-20T13:29:43;4.10;99.90
54260;DHT22;40172;53.022;7.012;2022-11-20T13:32:16;4.10;99.90
54260;DHT22;40172;53.022;7.012;2022-11-20T13:34:57;4.10;99.90
54260;DHT22;40172;53.022;7.012;2022-11-20T13:37:30;4.00;99.90
54260;DHT22;40172;53.022;7.012;2022-11-20T13:40:12;3.80;99.90
54260;DHT22;40172;53.022;7.012;2022-11-20T13:42:45;3.70;99.90
54260;DHT22;40172;53.022;7.012;2022-11-20T13:45:25;3.60;99.90
54260;DHT22;40172;53.022;7.012;2022-11-20T13:47:52;3.50;99.90
54260;DHT22;40172;53.022;7.012;2022-11-20T13:50:19;3.40;99.90
54260;DHT22;40172;53.022;7.012;2022-11-20T13:53:46;3.30;99.90
54260;DHT22;40172;53.022;7.012;2022-11-20T13:56:00;3.30;99.90
54260;DHT22;40172;53.022;7.012;2022-11-20T13:59:19;3.20;99.90
54260;DHT22;40172;53.022;7.012;2022-11-20T14:01:26;3.20;99.90
54260;DHT22;40172;53.022;7.012;2022-11-20T14:03:52;3.10;99.90
54260;DHT22;40172;53.022;7.012;2022-11-20T14:06:26;3.00;99.90
54260;DHT22;40172;53.022;7.012;2022-11-20T14:08:52;4.60;99.90
54260;DHT22;40172;53.022;7.012;2022-11-20T14:11:24;2.80;99.90
54260;DHT22;40172;53.022;7.012;2022-11-20T14:14:01;2.80;99.90
54260;DHT22;40172;53.022;7.012;2022-11-20T14:16:33;2.80;99.90
54260;DHT22;40172;53.022;7.012;2022-11-20T14:22:05;2.60;99.90
54260;DHT22;40172;53.022;7.012;2022-11-20T14:24:30;2.60;99.90
54260;DHT22;40172;53.022;7.012;2022-11-20T14:26:56;2.50;99.90
54260;DHT22;40172;53.022;7.012;2022-11-20T14:29:49;2.40;99.90
54260;DHT22;40172;53.022;7.012;2022-11-20T14:32:17;1.70;99.90
54260;DHT22;40172;53.022;7.012;2022-11-20T14:34:44;2.30;99.90
54260;DHT22;40172;53.022;7.012;2022-11-20T14:37:12;2.30;99.90
54260;DHT22;40172;53.022;7.012;2022-11-20T14:39:42;2.30;99.90
54260;DHT22;40172;53.022;7.012;2022-11-20T14:42:23;2.40;99.90
54260;DHT22;40172;53.022;7.012;2022-11-20T14:44:50;2.20;99.90
54260;DHT22;40172;53.022;7.012;2022-11-20T14:47:21;2.10;99.90
54260;DHT22;40172;53.022;7.012;2022-11-20T14:49:48;1.60;99.90
54260;DHT22;40172;53.022;7.012;2022-11-20T14:52:17;2.00;99.90
54260;DHT22;40172;53.022;7.012;2022-11-20T14:54:45;1.90;99.90
54260;DHT22;40172;53.022;7.012;2022-11-20T14:57:33;1.90;99.90
54260;DHT22;40172;53.022;7.012;2022-11-20T15:02:48;1.80;99.90
54260;DHT22;40172;53.022;7.012;2022-11-20T15:05:16;1.70;99.90
54260;DHT22;40172;53.022;7.012;2022-11-20T15:07:45;1.60;99.90
54260;DHT22;40172;53.022;7.012;2022-11-20T15:10:25;1.60;99.90
54260;DHT22;40172;53.022;7.012;2022-11-20T15:12:53;1.60;99.90
54260;DHT22;40172;53.022;7.012;2022-11-20T15:15:29;1.50;99.90
54260;DHT22;40172;53.022;7.012;2022-11-20T15:17:56;1.40;99.90
54260;DHT22;40172;53.022;7.012;2022-11-20T15:20:25;1.50;99.90
54260;DHT22;40172;53.022;7.012;2022-11-20T15:22:51;1.40;99.90
54260;DHT22;40172;53.022;7.012;2022-11-20T15:25:18;1.40;99.90
54260;DHT22;40172;53.022;7.012;2022-11-20T15:27:45;1.20;99.90
54260;DHT22;40172;53.022;7.012;2022-11-20T15:30:16;1.10;99.90
54260;DHT22;40172;53.022;7.012;2022-11-20T15:32:43;1.10;99.90
54260;DHT22;40172;53.022;7.012;2022-11-20T15:35:09;0.90;99.90
54260;DHT22;40172;53.022;7.012;2022-11-20T15:37:36;0.90;99.90
54260;DHT22;40172;53.022;7.012;2022-11-20T15:40:02;0.80;99.90
54260;DHT22;40172;53.022;7.012;2022-11-20T15:42:28;0.90;99.90
54260;DHT22;40172;53.022;7.012;2022-11-20T15:44:53;0.80;99.90
54260;DHT22;40172;53.022;7.012;2022-11-20T15:47:23;0.80;99.90
54260;DHT22;40172;53.022;7.012;2022-11-20T15:49:50;0.80;99.90
54260;DHT22;40172;53.022;7.012;2022-11-20T15:52:16;0.70;99.90
54260;DHT22;40172;53.022;7.012;2022-11-20T15:54:41;0.70;99.90
54260;DHT22;40172;53.022;7.012;2022-11-20T15:57:07;0.80;99.90
54260;DHT22;40172;53.022;7.012;2022-11-20T15:59:33;0.70;99.90
54260;DHT22;40172;53.022;7.012;2022-11-20T16:01:59;0.60;99.90
54260;DHT22;40172;53.022;7.012;2022-11-20T16:04:25;0.70;99.90
54260;DHT22;40172;53.022;7.012;2022-11-20T16:06:50;0.70;99.90
54260;DHT22;40172;53.022;7.012;2022-11-20T16:09:16;0.60;99.90
54260;DHT22;40172;53.022;7.012;2022-11-20T16:11:41;0.60;99.90
54260;DHT22;40172;53.022;7.012;2022-11-20T16:14:10;0.50;99.90
54260;DHT22;40172;53.022;7.012;2022-11-20T16:16:54;0.60;99.90
54260;DHT22;40172;53.022;7.012;2022-11-20T16:19:19;0.60;99.90
54260;DHT22;40172;53.022;7.012;2022-11-20T16:21:45;0.90;99.90
54260;DHT22;40172;53.022;7.012;2022-11-20T16:24:13;0.70;99.90
54260;DHT22;40172;53.022;7.012;2022-11-20T16:26:39;0.60;99.90
54260;DHT22;40172;53.022;7.012;2022-11-20T16:29:06;0.90;99.90
54260;DHT22;40172;53.022;7.012;2022-11-20T16:31:32;0.70;99.90
54260;DHT22;40172;53.022;7.012;2022-11-20T16:34:03;0.90;99.90
54260;DHT22;40172;53.022;7.012;2022-11-20T16:36:30;0.70;99.90
54260;DHT22;40172;53.022;7.012;2022-11-20T16:38:58;0.70;99.90
54260;DHT22;40172;53.022;7.012;2022-11-20T16:41:26;0.70;99.90
54260;DHT22;40172;53.022;7.012;2022-11-20T16:43:54;0.70;99.90
54260;DHT22;40172;53.022;7.012;2022-11-20T16:46:23;0.60;99.90
54260;DHT22;40172;53.022;7.012;2022-11-20T16:48:57;0.70;99.90
54260;DHT22;40172;53.022;7.012;2022-11-20T16:51:23;0.70;99.90